Latest Weather Observations for Edinburgh

IDS60901

Issued at 10:21 am CST Tuesday 18 June 2019 (issued every 10 minutes, with the page automatically refreshed every 10 minutes)

About weather observations | Map of Adelaide area stations | Latest observations for Adelaide area | Other Formats
Station Details ID: 023083 Name: EDINBURGH RAAF Lat: -34.71 Lon: 138.62 Height: 16.54 m
Data from the previous 72 hours. | See also: Recent months at Edinburgh
Date/Time
CST
Temp
°C
App
Temp
°C
Dew
Point
°C
Rel
Hum
%
Delta-T
°C
Wind Press
QNH
hPa
Press
MSL
hPa
Rain since
9am
mm
Dir  Spd
km/h
Gust
km/h
Spd
kts
Gust
kts
18/10:00am 10.5 8.0 6.5 76 1.9 SSW 9 11 5 6 1025.2 1025.2 0.2
18/09:30am 9.9 4.8 6.1 77 1.7 SSW 22 35 12 19 1025.1 1025.1 0.2
18/09:26am 10.3 6.2 6.1 75 1.9 SSW 17 35 9 19 1024.9 1024.9 0.0
18/09:00am 10.3 7.7 6.3 76 1.9 S 9 13 5 7 1024.5 1024.5 4.2
18/08:30am 9.6 7.0 6.3 80 1.5 SSW 9 11 5 6 1024.1 1024.1 4.2
18/08:00am 8.9 7.1 5.6 80 1.5 SSE 4 6 2 3 1023.6 1023.6 4.0
18/07:30am 8.9 6.4 4.9 76 1.8 S 7 11 4 6 1023.2 1023.2 4.0
18/07:00am 9.8 4.5 5.2 73 2.1 SSW 22 30 12 16 1022.6 1022.6 4.0
18/06:30am 9.1 4.8 5.3 77 1.7 SW 17 20 9 11 1022.0 1022.0 4.0
18/06:00am 9.0 4.7 5.2 77 1.7 SW 17 20 9 11 1021.8 1021.8 4.0
18/05:30am 9.7 4.8 5.3 74 2.0 SW 20 28 11 15 1021.6 1021.6 4.0
18/05:00am 9.9 4.3 5.5 74 2.0 SW 24 30 13 16 1021.3 1021.3 4.0
18/04:30am 9.8 5.0 5.8 76 1.8 SW 20 26 11 14 1021.0 1021.0 4.0
18/04:00am 10.1 5.6 5.9 75 1.9 SW 19 24 10 13 1020.9 1020.9 4.0
18/03:39am 10.1 5.9 7.5 84 1.2 WSW 19 24 10 13 1021.1 1021.1 4.0
18/03:30am 10.0 4.8 7.3 83 1.3 WSW 24 33 13 18 1021.1 1021.1 4.0
18/03:25am 10.2 4.5 6.9 80 1.6 WSW 26 33 14 18 1021.0 1021.0 4.0
18/03:00am 10.7 6.3 6.5 75 2.0 SW 19 24 10 13 1020.8 1020.8 3.4
18/02:30am 10.5 5.4 6.1 74 2.0 SW 22 28 12 15 1020.6 1020.6 3.4
18/02:00am 10.8 5.8 6.6 75 2.0 SW 22 30 12 16 1020.4 1020.4 3.4
18/01:30am 11.5 7.0 7.0 74 2.1 SW 20 30 11 16 1020.1 1020.1 3.4
18/01:00am 10.7 8.8 9.1 90 0.8 SW 9 13 5 7 1019.9 1019.9 3.4
18/12:40am 10.8 7.8 9.1 89 0.8 SW 15 19 8 10 1019.7 1019.7 3.2
18/12:30am 10.8 6.8 9.2 90 0.8 SW 20 32 11 17 1019.7 1019.7 3.2
18/12:25am 10.8 7.5 9.4 91 0.7 SW 17 32 9 17 1019.7 1019.7 3.2
18/12:04am 10.8 9.0 9.6 92 0.6 SSW 9 11 5 6 1019.5 1019.5 3.0
18/12:00am 10.7 8.9 9.5 92 0.6 SSW 9 13 5 7 1019.6 1019.6 3.0
 
Date/Time
CST
Temp
°C
App
Temp
°C
Dew
Point
°C
Rel
Hum
%
Delta-T
°C
Wind Press
QNH
hPa
Press
MSL
hPa
Rain since
9am
mm
Dir  Spd
km/h
Gust
km/h
Spd
kts
Gust
kts
17/11:42pm 10.4 8.2 9.2 92 0.6 NNW 11 17 6 9 1019.7 1019.7 2.6
17/11:30pm 10.4 7.7 9.0 91 0.7 NNW 13 17 7 9 1019.7 1019.7 2.4
17/11:00pm 10.8 6.3 8.6 86 1.1 NNW 22 30 12 16 1019.7 1019.7 1.0
17/10:43pm 11.1 6.5 8.3 83 1.4 NW 22 30 12 16 1019.8 1019.8 0.8
17/10:30pm 11.5 7.1 7.6 77 1.9 NNW 20 30 11 16 1019.6 1019.6 0.6
17/10:00pm 11.2 8.2 7.5 78 1.8 N 13 17 7 9 1019.6 1019.6 0.6
17/09:30pm 11.1 7.6 7.4 78 1.8 N 15 19 8 10 1019.8 1019.8 0.6
17/09:00pm 11.4 7.5 7.1 75 2.0 N 17 20 9 11 1019.9 1019.9 0.6
17/08:30pm 11.4 7.9 7.3 76 2.0 N 15 20 8 11 1020.1 1020.1 0.6
17/08:00pm 11.1 8.2 8.0 81 1.5 NNE 13 19 7 10 1020.2 1020.2 0.6
17/07:30pm 11.0 8.5 8.2 83 1.4 NNE 11 15 6 8 1020.1 1020.1 0.6
17/06:30pm 11.5 8.9 7.8 78 1.8 NNE 11 - 6 - - 1020.1 -
17/06:00pm 11.8 8.8 7.5 75 2.1 N 13 - 7 - - 1020.1 -
17/05:30pm 11.7 8.2 7.4 75 2.1 N 15 20 8 11 1020.1 1020.1 0.6
17/05:00pm 12.3 8.0 7.8 74 2.2 NNW 20 30 11 16 1020.1 1020.1 0.6
17/04:30pm 12.4 10.1 9.1 80 1.7 NNW 11 13 6 7 1020.2 1020.2 0.6
17/04:00pm 13.0 10.8 9.3 78 1.9 NW 11 15 6 8 1020.1 1020.1 0.6
17/03:30pm 12.8 9.8 9.3 79 1.8 WNW 15 20 8 11 1020.4 1020.4 0.6
17/03:00pm 13.1 9.8 9.7 80 1.7 WNW 17 22 9 12 1020.5 1020.5 0.6
17/02:30pm 12.5 9.2 9.5 82 1.5 WNW 17 28 9 15 1020.7 1020.7 0.6
17/02:00pm 13.5 9.5 9.2 75 2.2 WNW 20 24 11 13 1020.7 1020.7 0.0
17/01:30pm 14.2 9.6 8.2 67 3.0 WNW 22 28 12 15 1020.7 1020.7 0.0
17/01:00pm 13.6 9.6 8.9 73 2.4 NW 20 28 11 15 1021.1 1021.1 0.0
17/12:30pm 14.3 11.1 10.1 76 2.2 NNW 17 24 9 13 1021.5 1021.5 0.0
17/12:00pm 14.7 10.8 10.7 77 2.1 NNW 22 30 12 16 1022.1 1022.1 0.0
17/11:30am 14.0 10.2 9.8 76 2.2 NNW 20 26 11 14 1022.5 1022.5 0.0
17/11:00am 13.7 10.6 10.3 80 1.8 NNW 17 24 9 13 1022.7 1022.7 0.0
17/10:30am 12.9 10.1 10.1 83 1.4 N 15 19 8 10 1023.2 1023.2 0.0
17/10:01am 11.3 8.1 8.3 82 1.5 NNE 15 19 8 10 1023.0 1023.0 0.0
17/10:00am 11.3 8.1 8.5 83 1.4 NNE 15 19 8 10 1023.0 1023.0 0.0
17/09:30am 10.1 6.8 6.6 79 1.6 NNE 13 17 7 9 1023.1 1023.1 0.0
17/09:12am 9.9 6.6 6.4 79 1.6 NNE 13 17 7 9 1023.1 1023.1 0.0
17/09:00am 9.6 6.3 6.3 80 1.5 NNE 13 15 7 8 1023.2 1023.2 0.2
17/08:30am 8.7 5.6 5.6 81 1.4 NE 11 15 6 8 1023.0 1023.0 0.2
17/08:00am 7.7 4.5 5.0 83 1.2 NE 11 15 6 8 1022.9 1022.9 0.2
17/07:30am 6.5 2.8 4.3 86 0.9 NNE 13 17 7 9 1022.8 1022.8 0.2
17/07:00am 6.8 2.7 4.3 84 1.1 NE 15 17 8 9 1022.4 1022.4 0.2
17/06:30am 6.6 3.3 4.3 85 1.0 NE 11 15 6 8 1022.3 1022.3 0.2
17/06:00am 6.8 3.1 4.3 84 1.1 NE 13 15 7 8 1022.2 1022.2 0.2
17/05:30am 6.1 2.7 3.9 86 0.9 NE 11 15 6 8 1022.1 1022.1 0.2
17/05:00am 6.0 2.9 3.8 86 0.9 NE 9 11 5 6 1022.1 1022.1 0.2
17/04:30am 6.6 2.5 4.3 85 1.0 NE 15 17 8 9 1022.2 1022.2 0.2
17/04:00am 6.2 2.8 4.2 87 0.9 NE 11 13 6 7 1022.2 1022.2 0.2
17/03:30am 6.6 3.3 4.8 88 0.8 NE 11 11 6 6 1022.5 1022.5 0.2
17/03:00am 6.5 3.6 4.8 89 0.7 NE 9 11 5 6 1022.7 1022.7 0.2
17/02:30am 6.6 4.1 4.8 88 0.8 NE 7 9 4 5 1022.7 1022.7 0.2
17/02:00am 6.7 3.8 4.9 88 0.8 ENE 9 9 5 5 1022.8 1022.8 0.2
17/01:30am 7.0 4.2 5.0 87 0.9 ENE 9 11 5 6 1022.9 1022.9 0.2
17/01:00am 7.4 4.2 5.2 86 1.0 ENE 11 11 6 6 1023.0 1023.0 0.2
17/12:30am 7.2 4.4 5.0 86 1.0 ENE 9 11 5 6 1023.3 1023.3 0.2
17/12:00am 7.7 5.4 5.5 86 1.0 ENE 7 9 4 5 1023.6 1023.6 0.2
 
Date/Time
CST
Temp
°C
App
Temp
°C
Dew
Point
°C
Rel
Hum
%
Delta-T
°C
Wind Press
QNH
hPa
Press
MSL
hPa
Rain since
9am
mm
Dir  Spd
km/h
Gust
km/h
Spd
kts
Gust
kts
16/11:30pm 8.2 5.9 5.8 85 1.1 NE 7 9 4 5 1023.6 1023.6 0.2
16/11:00pm 8.3 6.3 6.1 86 1.0 NE 6 7 3 4 1023.5 1023.5 0.2
16/10:30pm 8.0 5.8 6.0 87 0.9 NE 7 9 4 5 1023.5 1023.5 0.2
16/10:00pm 8.4 6.2 6.4 87 0.9 NNE 7 9 4 5 1023.5 1023.5 0.2
16/09:30pm 7.6 5.2 5.4 86 1.0 N 7 11 4 6 1023.5 1023.5 0.2
16/09:00pm 8.9 6.4 6.5 85 1.1 NE 9 11 5 6 1023.4 1023.4 0.2
16/08:30pm 9.5 7.4 6.8 83 1.3 NE 7 9 4 5 1023.2 1023.2 0.2
16/08:00pm 10.0 7.6 7.1 82 1.4 ENE 9 9 5 5 1023.1 1023.1 0.2
16/07:30pm 10.5 8.6 7.4 81 1.5 ENE 7 9 4 5 1023.0 1023.0 0.2
16/07:00pm 10.8 9.0 7.1 78 1.8 E 6 7 3 4 1022.7 1022.7 0.2
16/06:30pm 11.8 10.0 7.9 77 1.9 E 7 9 4 5 1022.5 1022.5 0.2
16/06:00pm 12.4 11.1 7.5 72 2.4 WSW 4 6 2 3 1022.3 1022.3 0.2
16/05:30pm 12.8 11.9 7.7 71 2.5 WSW 2 6 1 3 1022.2 1022.2 0.2
16/05:00pm 14.1 12.5 7.9 66 3.1 WSW 6 9 3 5 1022.0 1022.0 0.2
16/04:30pm 15.5 14.1 8.7 64 3.4 WSW 6 7 3 4 1021.8 1021.8 0.2
16/04:00pm 15.7 13.9 8.0 60 3.9 SW 7 9 4 5 1021.7 1021.7 0.2
16/03:30pm 15.9 14.5 7.4 57 4.2 SW 4 7 2 4 1021.6 1021.6 0.2
16/03:00pm 16.2 14.6 8.2 59 4.0 WSW 6 9 3 5 1021.7 1021.7 0.2
16/02:30pm 16.1 14.5 7.8 58 4.2 W 6 11 3 6 1021.3 1021.3 0.2
16/02:00pm 15.8 13.5 7.3 57 4.2 W 9 13 5 7 1021.5 1021.5 0.2
16/01:30pm 15.9 14.2 8.2 60 3.9 W 7 13 4 7 1021.6 1021.6 0.2
16/01:00pm 14.8 13.1 8.3 65 3.3 WSW 7 11 4 6 1021.8 1021.8 0.2
16/12:30pm 15.0 14.1 7.8 62 3.6 NW 2 7 1 4 1022.1 1022.1 0.2
16/12:00pm 15.3 13.4 7.6 60 3.8 W 7 11 4 6 1022.4 1022.4 0.2
16/11:30am 15.7 14.4 7.5 58 4.1 N 4 9 2 5 1022.6 1022.6 0.2
16/11:00am 14.9 13.2 7.7 62 3.6 N 6 9 3 5 1022.9 1022.9 0.2
16/10:30am 14.0 11.7 7.3 64 3.3 NNE 9 11 5 6 1022.9 1022.9 0.0
16/10:00am 13.6 10.9 7.2 65 3.1 N 11 17 6 9 1022.9 1022.9 0.0
16/09:30am 13.2 10.3 6.3 63 3.3 NNE 11 17 6 9 1022.6 1022.6 0.0
16/09:00am 12.5 9.6 6.3 66 2.9 NNE 11 15 6 8 1022.4 1022.4 0.0
16/08:30am 11.1 8.9 6.0 71 2.4 NNE 7 9 4 5 1021.9 1021.9 0.0
16/08:00am 10.2 7.8 5.2 71 2.3 NE 7 13 4 7 1021.5 1021.5 0.0
16/07:30am 8.6 5.3 4.8 77 1.7 NE 11 17 6 9 1020.9 1020.9 0.0
16/07:00am 9.8 7.0 5.0 72 2.2 ENE 9 11 5 6 1020.6 1020.6 0.0
16/06:30am 9.7 6.6 5.5 75 1.9 ENE 11 13 6 7 1020.5 1020.5 0.0
16/06:00am 10.3 6.5 5.7 73 2.1 NE 15 19 8 10 1020.2 1020.2 0.0
16/05:30am 11.1 7.7 5.8 70 2.4 ENE 13 15 7 8 1020.0 1020.0 0.0
16/05:00am 11.1 7.7 6.0 71 2.4 NE 13 17 7 9 1019.8 1019.8 0.0
16/04:30am 11.3 7.6 6.2 71 2.4 NE 15 17 8 9 1019.7 1019.7 0.0
16/04:00am 11.0 7.7 6.2 72 2.2 NE 13 17 7 9 1019.7 1019.7 0.0
16/03:30am 11.2 7.8 6.1 71 2.4 NE 13 17 7 9 1020.0 1020.0 0.0
16/03:00am 11.0 8.5 6.4 73 2.2 ENE 9 11 5 6 1020.1 1020.1 0.0
16/02:30am 10.8 7.5 6.6 75 2.0 NE 13 15 7 8 1020.0 1020.0 0.0
16/02:00am 11.2 8.3 6.5 73 2.2 NE 11 15 6 8 1020.1 1020.1 0.0
16/01:30am 11.3 8.5 6.8 74 2.1 NE 11 13 6 7 1020.2 1020.2 0.0
16/01:00am 10.9 8.1 7.0 77 1.9 NE 11 11 6 6 1020.2 1020.2 0.0
16/12:30am 11.0 8.2 6.9 76 1.9 NE 11 13 6 7 1020.2 1020.2 0.0
16/12:00am 11.2 8.0 6.9 75 2.0 NNE 13 17 7 9 1020.2 1020.2 0.0
 
Date/Time
CST
Temp
°C
App
Temp
°C
Dew
Point
°C
Rel
Hum
%
Delta-T
°C
Wind Press
QNH
hPa
Press
MSL
hPa
Rain since
9am
mm
Dir  Spd
km/h
Gust
km/h
Spd
kts
Gust
kts
15/11:30pm 11.6 7.6 6.5 71 2.4 NNE 17 20 9 11 1020.3 1020.3 0.0
15/11:00pm 11.5 7.5 6.6 72 2.3 NNE 17 20 9 11 1020.4 1020.4 0.0
15/10:30pm 11.4 7.8 6.7 73 2.2 NE 15 19 8 10 1020.5 1020.5 0.0
15/10:00pm 11.3 7.7 6.8 74 2.1 NE 15 19 8 10 1020.7 1020.7 0.0
15/09:30pm 10.9 7.7 7.0 77 1.8 NE 13 15 7 8 1020.7 1020.7 0.0
15/09:00pm 11.1 8.4 7.4 78 1.8 NE 11 11 6 6 1020.8 1020.8 0.0
15/08:30pm 11.3 8.6 7.4 77 1.9 NE 11 13 6 7 1020.8 1020.8 0.0
15/08:00pm 12.3 9.8 8.0 75 2.1 NE 11 13 6 7 1020.8 1020.8 0.0
15/07:30pm 13.1 10.7 8.6 74 2.2 NE 11 13 6 7 1020.8 1020.8 0.0
15/07:00pm 13.0 10.6 8.7 75 2.2 NE 11 13 6 7 1020.7 1020.7 0.0
15/06:30pm 13.4 11.6 9.3 76 2.1 NE 9 11 5 6 1020.5 1020.5 0.0
15/06:00pm 13.5 11.7 9.4 76 2.1 NNE 9 11 5 6 1020.5 1020.5 0.0
15/05:30pm 13.4 11.6 9.3 76 2.1 NNW 9 11 5 6 1020.6 1020.6 0.0
15/05:00pm 13.4 11.5 9.1 75 2.2 NNW 9 11 5 6 1020.4 1020.4 0.0
15/04:30pm 14.4 11.7 9.0 70 2.7 NW 13 17 7 9 1020.4 1020.4 0.0
15/04:00pm 15.6 12.4 9.9 69 3.0 NNW 17 22 9 12 1020.2 1020.2 0.0
15/03:30pm 15.8 12.2 9.7 67 3.2 NW 19 24 10 13 1020.2 1020.2 0.0
15/03:00pm 15.8 11.8 9.2 65 3.4 NNW 20 24 11 13 1020.3 1020.3 0.0
15/02:30pm 15.8 12.5 10.8 72 2.7 NW 19 24 10 13 1020.4 1020.4 0.0
15/02:00pm 15.7 12.1 9.8 68 3.1 NNW 19 26 10 14 1020.6 1020.6 0.0
15/01:30pm 15.1 12.6 10.9 76 2.2 N 15 20 8 11 1021.0 1021.0 0.0
15/01:00pm 15.5 13.4 11.1 75 2.4 N 13 19 7 10 1021.3 1021.3 0.0
15/12:30pm 14.9 13.2 11.3 79 1.9 N 11 17 6 9 1021.5 1021.5 0.0
15/12:29pm 14.8 13.1 11.2 79 1.9 N 11 17 6 9 1021.5 1021.5 0.0
15/12:00pm 14.8 12.6 10.8 77 2.1 N 13 19 7 10 1021.8 1021.8 0.0
15/11:30am 14.7 12.3 11.3 80 1.8 N 15 22 8 12 1022.3 1022.3 0.0
15/11:14am 14.6 11.8 11.2 80 1.8 N 17 20 9 11 1022.5 1022.5 0.0
15/11:00am 13.9 10.5 10.5 80 1.8 N 19 22 10 12 1022.6 1022.6 0.0
15/10:30am 13.8 11.3 11.0 83 1.5 N 15 20 8 11 1022.8 1022.8 0.0

Latest Capital City Observations: Canberra | Sydney | Melbourne | Brisbane | Adelaide | Perth | Hobart | Darwin

Other formats

Comma delimited format used in spreadsheet applications
http://www.bom.gov.au/fwo/IDS60901/IDS60901.95676.axf

JavaScript Object Notation format (JSON) in row-major order
http://www.bom.gov.au/fwo/IDS60901/IDS60901.95676.json

Data quality

Most of these data are generated automatically and are frequently updated. Quality checks on data are not normally performed. It is possible for incorrect values to appear. Refer to information at About Latest Weather Observations and please check the disclaimer before using these data.